Time,TemperatureF,DewpointF,PressureIn,WindDirection,WindDirectionDegrees,WindSpeedMPH,WindSpeedGustMPH,Humidity,HourlyPrecipIn,Conditions,Clouds,dailyrainin,SolarRadiationWatts/m^2,SoftwareType,DateUTC
2013-06-05 00:03:00,67.0,66.0,30.19,NE,38,3.0,6.0,97,0.00,,,0.08,0.000000,,2013-06-05 04:03:00,
2013-06-05 00:10:00,66.0,65.0,30.20,NE,56,3.0,7.0,95,0.00,,,0.08,0.000000,,2013-06-05 04:10:00,
2013-06-05 00:33:00,66.0,65.0,30.20,NE,56,3.0,7.0,95,0.00,,,0.08,0.000000,,2013-06-05 04:33:00,
2013-06-05 00:42:00,66.0,65.0,30.20,NE,56,3.0,7.0,95,0.00,,,0.08,0.000000,,2013-06-05 04:42:00,
2013-06-05 00:53:00,66.0,65.0,30.20,NE,56,3.0,7.0,95,0.00,,,0.08,0.000000,,2013-06-05 04:53:00,
2013-06-05 01:02:00,66.0,65.0,30.20,NE,56,3.0,7.0,95,0.00,,,0.08,0.000000,,2013-06-05 05:02:00,
2013-06-05 01:10:00,65.0,64.0,30.20,ENE,57,3.0,6.0,95,0.00,,,0.08,0.000000,,2013-06-05 05:10:00,
2013-06-05 01:32:00,65.0,64.0,30.20,ENE,57,3.0,6.0,95,0.00,,,0.08,0.000000,,2013-06-05 05:32:00,
2013-06-05 01:42:00,65.0,64.0,30.20,ENE,57,3.0,6.0,95,0.00,,,0.08,0.000000,,2013-06-05 05:42:00,
2013-06-05 01:53:00,65.0,64.0,30.20,ENE,57,3.0,6.0,95,0.00,,,0.08,0.000000,,2013-06-05 05:53:00,
2013-06-05 02:02:00,65.0,64.0,30.20,ENE,57,3.0,6.0,95,0.00,,,0.08,0.000000,,2013-06-05 06:02:00,
2013-06-05 02:10:00,66.0,65.0,30.19,ENE,60,1.0,6.0,98,0.00,,,0.08,0.000000,,2013-06-05 06:10:00,
2013-06-05 02:32:00,66.0,65.0,30.19,ENE,60,1.0,6.0,98,0.00,,,0.08,0.000000,,2013-06-05 06:32:00,
2013-06-05 02:42:00,66.0,65.0,30.19,ENE,60,1.0,6.0,98,0.00,,,0.08,0.000000,,2013-06-05 06:42:00,
2013-06-05 02:52:00,66.0,65.0,30.19,ENE,60,1.0,6.0,98,0.00,,,0.08,0.000000,,2013-06-05 06:52:00,
2013-06-05 03:02:00,66.0,65.0,30.19,ENE,60,1.0,6.0,98,0.00,,,0.08,0.000000,,2013-06-05 07:02:00,
2013-06-05 03:10:00,66.0,66.0,30.17,ENE,76,7.0,11.0,99,0.00,,,0.08,0.000000,,2013-06-05 07:10:00,
2013-06-05 03:32:00,66.0,66.0,30.17,ENE,76,7.0,11.0,99,0.00,,,0.08,0.000000,,2013-06-05 07:32:00,
2013-06-05 03:42:00,66.0,66.0,30.17,ENE,76,7.0,11.0,99,0.00,,,0.08,0.000000,,2013-06-05 07:42:00,
2013-06-05 03:52:00,66.0,66.0,30.17,ENE,76,7.0,11.0,99,0.00,,,0.08,0.000000,,2013-06-05 07:52:00,
2013-06-05 04:02:00,66.0,66.0,30.17,ENE,76,7.0,11.0,99,0.00,,,0.08,0.000000,,2013-06-05 08:02:00,
2013-06-05 04:10:00,67.0,67.0,30.17,NE,39,3.0,6.0,99,0.01,,,0.09,0.000000,,2013-06-05 08:10:00,
2013-06-05 04:32:00,67.0,67.0,30.17,NE,39,3.0,6.0,99,0.01,,,0.09,0.000000,,2013-06-05 08:32:00,
2013-06-05 04:42:00,67.0,67.0,30.17,NE,39,3.0,6.0,99,0.01,,,0.09,0.000000,,2013-06-05 08:42:00,
2013-06-05 04:52:00,67.0,67.0,30.17,NE,39,3.0,6.0,99,0.01,,,0.09,0.000000,,2013-06-05 08:52:00,
2013-06-05 05:02:00,67.0,67.0,30.17,NE,39,3.0,6.0,99,0.01,,,0.09,0.000000,,2013-06-05 09:02:00,
2013-06-05 05:10:00,65.0,64.0,30.17,ENE,61,2.0,7.0,98,0.00,,,0.01,0.000000,,2013-06-05 09:10:00,
2013-06-05 05:33:00,65.0,64.0,30.17,ENE,61,2.0,7.0,98,0.00,,,0.01,0.000000,,2013-06-05 09:33:00,
2013-06-05 05:43:00,65.0,64.0,30.17,ENE,61,2.0,7.0,98,0.00,,,0.01,0.000000,,2013-06-05 09:43:00,
2013-06-05 05:53:00,65.0,64.0,30.17,ENE,61,2.0,7.0,98,0.00,,,0.01,0.000000,,2013-06-05 09:53:00,
2013-06-05 06:03:00,65.0,64.0,30.17,ENE,61,2.0,7.0,98,0.00,,,0.01,0.000000,,2013-06-05 10:03:00,
2013-06-05 06:10:00,67.0,66.0,30.19,North,9,2.0,5.0,98,0.00,,,0.01,0.000000,,2013-06-05 10:10:00,
2013-06-05 06:33:00,67.0,66.0,30.19,North,9,2.0,5.0,98,0.00,,,0.01,0.000000,,2013-06-05 10:33:00,
2013-06-05 06:43:00,67.0,66.0,30.19,North,9,2.0,5.0,98,0.00,,,0.01,0.000000,,2013-06-05 10:43:00,
2013-06-05 06:53:00,67.0,66.0,30.19,North,9,2.0,5.0,98,0.00,,,0.01,0.000000,,2013-06-05 10:53:00,
2013-06-05 07:02:00,67.0,66.0,30.19,North,9,2.0,5.0,98,0.00,,,0.01,0.000000,,2013-06-05 11:02:00,
2013-06-05 07:10:00,66.0,65.0,30.21,ENE,59,2.0,7.0,95,0.00,,,0.01,5.000000,,2013-06-05 11:10:00,
2013-06-05 07:33:00,66.0,65.0,30.21,ENE,59,2.0,7.0,95,0.00,,,0.01,5.000000,,2013-06-05 11:33:00,
2013-06-05 07:42:00,66.0,65.0,30.21,ENE,59,2.0,7.0,95,0.00,,,0.01,5.000000,,2013-06-05 11:42:00,
2013-06-05 07:52:00,66.0,65.0,30.21,ENE,59,2.0,7.0,95,0.00,,,0.01,5.000000,,2013-06-05 11:52:00,
2013-06-05 08:02:00,66.0,65.0,30.21,ENE,59,2.0,7.0,95,0.00,,,0.01,5.000000,,2013-06-05 12:02:00,
2013-06-05 08:10:00,69.0,66.0,30.20,NE,48,2.0,5.0,89,0.00,,,0.01,44.000000,,2013-06-05 12:10:00,
2013-06-05 08:32:00,69.0,66.0,30.20,NE,48,2.0,5.0,89,0.00,,,0.01,44.000000,,2013-06-05 12:32:00,
2013-06-05 08:44:00,69.0,66.0,30.20,NE,48,2.0,5.0,89,0.00,,,0.01,44.000000,,2013-06-05 12:44:00,
2013-06-05 08:52:00,69.0,66.0,30.20,NE,48,2.0,5.0,89,0.00,,,0.01,44.000000,,2013-06-05 12:52:00,
2013-06-05 09:02:00,69.0,66.0,30.20,NE,48,2.0,5.0,89,0.00,,,0.01,44.000000,,2013-06-05 13:02:00,
2013-06-05 09:10:00,70.0,65.0,30.21,ENE,57,4.0,8.0,83,0.00,,,0.01,169.000000,,2013-06-05 13:10:00,
2013-06-05 09:33:00,70.0,65.0,30.21,ENE,57,4.0,8.0,83,0.00,,,0.01,169.000000,,2013-06-05 13:33:00,
2013-06-05 09:42:00,70.0,65.0,30.21,ENE,57,4.0,8.0,83,0.00,,,0.01,169.000000,,2013-06-05 13:42:00,
2013-06-05 09:53:00,70.0,65.0,30.21,ENE,57,4.0,8.0,83,0.00,,,0.01,169.000000,,2013-06-05 13:53:00,
2013-06-05 10:02:00,70.0,65.0,30.21,ENE,57,4.0,8.0,83,0.00,,,0.01,169.000000,,2013-06-05 14:02:00,
2013-06-05 10:10:00,73.0,67.0,30.22,ENE,67,5.0,8.0,82,0.00,,,0.01,114.000000,,2013-06-05 14:10:00,
2013-06-05 10:32:00,73.0,67.0,30.22,ENE,67,5.0,8.0,82,0.00,,,0.01,114.000000,,2013-06-05 14:32:00,
2013-06-05 10:42:00,73.0,67.0,30.22,ENE,67,5.0,8.0,82,0.00,,,0.01,114.000000,,2013-06-05 14:42:00,
2013-06-05 10:52:00,73.0,67.0,30.22,ENE,67,5.0,8.0,82,0.00,,,0.01,114.000000,,2013-06-05 14:52:00,
2013-06-05 11:03:00,73.0,67.0,30.22,ENE,67,5.0,8.0,82,0.00,,,0.01,114.000000,,2013-06-05 15:03:00,
2013-06-05 11:10:00,74.0,68.0,30.22,NE,56,5.0,9.0,81,0.00,,,0.01,189.000000,,2013-06-05 15:10:00,
2013-06-05 11:33:00,74.0,68.0,30.22,NE,56,5.0,9.0,81,0.00,,,0.01,189.000000,,2013-06-05 15:33:00,
2013-06-05 11:43:00,74.0,68.0,30.22,NE,56,5.0,9.0,81,0.00,,,0.01,189.000000,,2013-06-05 15:43:00,
2013-06-05 11:53:00,74.0,68.0,30.22,NE,56,5.0,9.0,81,0.00,,,0.01,189.000000,,2013-06-05 15:53:00,
2013-06-05 12:04:00,74.0,68.0,30.22,NE,56,5.0,9.0,81,0.00,,,0.01,189.000000,,2013-06-05 16:04:00,
2013-06-05 12:10:00,77.0,69.0,30.21,ENE,59,5.0,11.0,76,0.00,,,0.01,314.000000,,2013-06-05 16:10:00,
2013-06-05 12:32:00,77.0,69.0,30.21,ENE,59,5.0,11.0,76,0.00,,,0.01,314.000000,,2013-06-05 16:32:00,
2013-06-05 12:42:00,77.0,69.0,30.21,ENE,59,5.0,11.0,76,0.00,,,0.01,314.000000,,2013-06-05 16:42:00,
2013-06-05 12:54:00,77.0,69.0,30.21,ENE,59,5.0,11.0,76,0.00,,,0.01,314.000000,,2013-06-05 16:54:00,
2013-06-05 13:02:00,77.0,69.0,30.21,ENE,59,5.0,11.0,76,0.00,,,0.01,314.000000,,2013-06-05 17:02:00,
2013-06-05 13:10:00,78.0,67.0,30.19,East,91,5.0,12.0,68,0.00,,,0.01,443.000000,,2013-06-05 17:10:00,
2013-06-05 13:33:00,78.0,67.0,30.19,East,91,5.0,12.0,68,0.00,,,0.01,443.000000,,2013-06-05 17:33:00,
2013-06-05 13:43:00,78.0,67.0,30.19,East,91,5.0,12.0,68,0.00,,,0.01,443.000000,,2013-06-05 17:43:00,
2013-06-05 13:52:00,78.0,67.0,30.19,East,91,5.0,12.0,68,0.00,,,0.01,443.000000,,2013-06-05 17:52:00,
2013-06-05 14:02:00,78.0,67.0,30.19,East,91,5.0,12.0,68,0.00,,,0.01,443.000000,,2013-06-05 18:02:00,
2013-06-05 14:10:00,80.0,68.0,30.18,East,90,6.0,13.0,66,0.00,,,0.01,523.000000,,2013-06-05 18:10:00,
2013-06-05 14:32:00,80.0,68.0,30.18,East,90,6.0,13.0,66,0.00,,,0.01,523.000000,,2013-06-05 18:32:00,
2013-06-05 14:42:00,80.0,68.0,30.18,East,90,6.0,13.0,66,0.00,,,0.01,523.000000,,2013-06-05 18:42:00,
2013-06-05 14:52:00,80.0,68.0,30.18,East,90,6.0,13.0,66,0.00,,,0.01,523.000000,,2013-06-05 18:52:00,
2013-06-05 15:03:00,80.0,68.0,30.18,East,90,6.0,13.0,66,0.00,,,0.01,523.000000,,2013-06-05 19:03:00,
2013-06-05 15:10:00,82.0,69.0,30.16,ENE,64,4.0,14.0,64,0.00,,,0.01,566.000000,,2013-06-05 19:10:00,
2013-06-05 15:32:00,82.0,69.0,30.16,ENE,64,4.0,14.0,64,0.00,,,0.01,566.000000,,2013-06-05 19:32:00,
2013-06-05 15:42:00,82.0,69.0,30.16,ENE,64,4.0,14.0,64,0.00,,,0.01,566.000000,,2013-06-05 19:42:00,
2013-06-05 15:53:00,82.0,69.0,30.16,ENE,64,4.0,14.0,64,0.00,,,0.01,566.000000,,2013-06-05 19:53:00,
2013-06-05 16:03:00,82.0,69.0,30.16,ENE,64,4.0,14.0,64,0.00,,,0.01,566.000000,,2013-06-05 20:03:00,
2013-06-05 16:10:00,78.0,68.0,30.14,ENE,75,5.0,10.0,72,0.00,,,0.01,316.000000,,2013-06-05 20:10:00,
2013-06-05 16:32:00,78.0,68.0,30.14,ENE,75,5.0,10.0,72,0.00,,,0.01,316.000000,,2013-06-05 20:32:00,
2013-06-05 16:42:00,78.0,68.0,30.14,ENE,75,5.0,10.0,72,0.00,,,0.01,316.000000,,2013-06-05 20:42:00,
2013-06-05 16:52:00,78.0,68.0,30.14,ENE,75,5.0,10.0,72,0.00,,,0.01,316.000000,,2013-06-05 20:52:00,
2013-06-05 17:02:00,78.0,68.0,30.14,ENE,75,5.0,10.0,72,0.00,,,0.01,316.000000,,2013-06-05 21:02:00,
2013-06-05 17:10:00,78.0,70.0,30.13,NNE,12,4.0,11.0,76,0.00,,,0.01,374.000000,,2013-06-05 21:10:00,
2013-06-05 17:33:00,78.0,70.0,30.13,NNE,12,4.0,11.0,76,0.00,,,0.01,374.000000,,2013-06-05 21:33:00,
2013-06-05 17:43:00,78.0,70.0,30.13,NNE,12,4.0,11.0,76,0.00,,,0.01,374.000000,,2013-06-05 21:43:00,
2013-06-05 17:53:00,78.0,70.0,30.13,NNE,12,4.0,11.0,76,0.00,,,0.01,374.000000,,2013-06-05 21:53:00,
2013-06-05 18:03:00,78.0,70.0,30.13,NNE,12,4.0,11.0,76,0.00,,,0.01,374.000000,,2013-06-05 22:03:00,
2013-06-05 18:10:00,79.0,69.0,30.11,ENE,65,7.0,13.0,71,0.00,,,0.01,293.000000,,2013-06-05 22:10:00,
2013-06-05 18:33:00,79.0,69.0,30.11,ENE,65,7.0,13.0,71,0.00,,,0.01,293.000000,,2013-06-05 22:33:00,
2013-06-05 18:43:00,79.0,69.0,30.11,ENE,65,7.0,13.0,71,0.00,,,0.01,293.000000,,2013-06-05 22:43:00,
2013-06-05 18:53:00,79.0,69.0,30.11,ENE,65,7.0,13.0,71,0.00,,,0.01,293.000000,,2013-06-05 22:53:00,
2013-06-05 19:02:00,79.0,69.0,30.11,ENE,65,7.0,13.0,71,0.00,,,0.01,293.000000,,2013-06-05 23:02:00,
2013-06-05 19:10:00,79.0,70.0,30.10,ENE,64,6.0,12.0,74,0.00,,,0.01,255.000000,,2013-06-05 23:10:00,
2013-06-05 19:32:00,79.0,70.0,30.10,ENE,64,6.0,12.0,74,0.00,,,0.01,255.000000,,2013-06-05 23:32:00,
2013-06-05 19:42:00,79.0,70.0,30.10,ENE,64,6.0,12.0,74,0.00,,,0.01,255.000000,,2013-06-05 23:42:00,
2013-06-05 19:53:00,79.0,70.0,30.10,ENE,64,6.0,12.0,74,0.00,,,0.01,255.000000,,2013-06-05 23:53:00,
2013-06-05 20:02:00,79.0,70.0,30.10,ENE,64,6.0,12.0,74,0.00,,,0.01,255.000000,,2013-06-06 00:02:00,
2013-06-05 20:10:00,72.0,68.0,30.12,West,274,2.0,17.0,86,0.00,,,0.01,45.000000,,2013-06-06 00:10:00,
2013-06-05 20:32:00,72.0,68.0,30.12,West,274,2.0,17.0,86,0.00,,,0.01,45.000000,,2013-06-06 00:32:00,
2013-06-05 20:43:00,72.0,68.0,30.12,West,274,2.0,17.0,86,0.00,,,0.01,45.000000,,2013-06-06 00:43:00,
2013-06-05 20:52:00,72.0,68.0,30.12,West,274,2.0,17.0,86,0.00,,,0.01,45.000000,,2013-06-06 00:52:00,
2013-06-05 21:02:00,72.0,68.0,30.12,West,274,2.0,17.0,86,0.00,,,0.01,45.000000,,2013-06-06 01:02:00,
2013-06-05 21:10:00,72.0,68.0,30.12,ENE,74,3.0,8.0,88,0.00,,,0.01,6.000000,,2013-06-06 01:10:00,
2013-06-05 21:32:00,72.0,68.0,30.12,ENE,74,3.0,8.0,88,0.00,,,0.01,6.000000,,2013-06-06 01:32:00,
2013-06-05 21:42:00,72.0,68.0,30.12,ENE,74,3.0,8.0,88,0.00,,,0.01,6.000000,,2013-06-06 01:42:00,
2013-06-05 21:53:00,72.0,68.0,30.12,ENE,74,3.0,8.0,88,0.00,,,0.01,6.000000,,2013-06-06 01:53:00,
2013-06-05 22:02:00,72.0,68.0,30.12,ENE,74,3.0,8.0,88,0.00,,,0.01,6.000000,,2013-06-06 02:02:00,
2013-06-05 22:10:00,69.0,68.0,30.13,ENE,76,4.0,7.0,96,0.00,,,0.01,0.000000,,2013-06-06 02:10:00,
2013-06-05 22:32:00,69.0,68.0,30.13,ENE,76,4.0,7.0,96,0.00,,,0.01,0.000000,,2013-06-06 02:32:00,
2013-06-05 22:42:00,69.0,68.0,30.13,ENE,76,4.0,7.0,96,0.00,,,0.01,0.000000,,2013-06-06 02:42:00,
2013-06-05 22:52:00,69.0,68.0,30.13,ENE,76,4.0,7.0,96,0.00,,,0.01,0.000000,,2013-06-06 02:52:00,
2013-06-05 23:02:00,69.0,68.0,30.13,ENE,76,4.0,7.0,96,0.00,,,0.01,0.000000,,2013-06-06 03:02:00,
2013-06-05 23:10:00,69.0,67.0,30.12,East,79,2.0,7.0,94,0.01,,,0.02,0.000000,,2013-06-06 03:10:00,
2013-06-05 23:33:00,69.0,67.0,30.12,East,79,2.0,7.0,94,0.01,,,0.02,0.000000,,2013-06-06 03:33:00,
2013-06-05 23:43:00,69.0,67.0,30.12,East,79,2.0,7.0,94,0.01,,,0.02,0.000000,,2013-06-06 03:43:00,
2013-06-05 23:53:00,69.0,67.0,30.12,East,79,2.0,7.0,94,0.01,,,0.02,0.000000,,2013-06-06 03:53:00,